createdAt,value
2022-11-23T00:02:24.431Z,3.03
2022-11-23T00:04:51.639Z,3.33
2022-11-23T00:07:18.809Z,3.28
2022-11-23T00:09:46.011Z,2.97
2022-11-23T00:12:13.123Z,2.50
2022-11-23T00:14:40.273Z,3.35
2022-11-23T00:17:07.376Z,2.90
2022-11-23T00:19:34.664Z,2.38
2022-11-23T00:22:02.307Z,2.90
2022-11-23T00:24:29.472Z,2.83
2022-11-23T00:26:56.687Z,2.92
2022-11-23T00:29:23.833Z,2.80
2022-11-23T00:31:50.942Z,3.13
2022-11-23T00:34:18.128Z,2.17
2022-11-23T00:36:45.242Z,2.55
2022-11-23T00:39:12.356Z,1.73
2022-11-23T00:41:39.501Z,2.17
2022-11-23T00:44:06.671Z,3.05
2022-11-23T00:46:33.840Z,2.45
2022-11-23T00:49:01.709Z,3.85
2022-11-23T00:51:30.281Z,2.25
2022-11-23T00:53:57.756Z,3.08
2022-11-23T00:56:25.598Z,2.63
2022-11-23T00:58:53.529Z,2.45
2022-11-23T01:01:22.593Z,2.00
2022-11-23T01:03:51.905Z,3.47
2022-11-23T01:06:21.387Z,2.10
2022-11-23T01:09:08.497Z,2.30
2022-11-23T01:11:36.061Z,2.10
2022-11-23T01:14:03.849Z,2.58
2022-11-23T01:16:41.113Z,4.65
2022-11-23T01:19:09.404Z,2.70
2022-11-23T01:21:39.671Z,3.33
2022-11-23T01:24:08.116Z,2.25
2022-11-23T01:26:35.738Z,2.20
2022-11-23T01:29:02.894Z,3.35
2022-11-23T01:31:30.033Z,2.90
2022-11-23T01:33:58.339Z,2.67
2022-11-23T01:36:26.614Z,4.10
2022-11-23T01:38:54.280Z,1.88
2022-11-23T01:41:23.737Z,1.90
2022-11-23T01:43:51.476Z,2.60
2022-11-23T01:46:19.141Z,3.45
2022-11-23T01:48:57.184Z,2.22
2022-11-23T01:53:54.648Z,1.77
2022-11-23T01:56:25.801Z,1.98
2022-11-23T01:58:54.449Z,3.15
2022-11-23T02:01:21.612Z,2.63
2022-11-23T02:03:49.194Z,3.60
2022-11-23T02:06:17.862Z,2.25
2022-11-23T02:08:45.523Z,2.92
2022-11-23T02:11:13.970Z,3.03
2022-11-23T02:13:42.319Z,4.50
2022-11-23T02:16:09.456Z,4.20
2022-11-23T02:18:36.764Z,2.60
2022-11-23T02:21:04.822Z,2.23
2022-11-23T02:23:53.492Z,2.75
2022-11-23T02:26:31.164Z,2.75
2022-11-23T02:29:01.085Z,3.42
2022-11-23T02:31:28.195Z,2.63
2022-11-23T02:33:55.403Z,3.08
2022-11-23T02:36:42.303Z,2.42
2022-11-23T02:39:21.630Z,3.47
2022-11-23T02:41:49.730Z,2.58
2022-11-23T02:44:37.082Z,3.05
2022-11-23T02:47:05.057Z,2.35
2022-11-23T02:49:32.837Z,2.28
2022-11-23T02:52:00.166Z,4.00
2022-11-23T02:54:27.750Z,2.83
2022-11-23T02:56:54.906Z,3.05
2022-11-23T02:59:22.127Z,4.70
2022-11-23T03:01:49.855Z,3.45
2022-11-23T03:04:16.971Z,2.83
2022-11-23T03:06:44.605Z,2.03
2022-11-23T03:09:11.784Z,3.20
2022-11-23T03:11:38.935Z,1.88
2022-11-23T03:14:06.105Z,3.38
2022-11-23T03:16:36.023Z,1.98
2022-11-23T03:19:03.657Z,3.75
2022-11-23T03:21:30.789Z,3.50
2022-11-23T03:23:58.616Z,2.28
2022-11-23T03:26:25.746Z,2.30
2022-11-23T03:28:52.883Z,4.38
2022-11-23T03:31:20.029Z,2.35
2022-11-23T03:33:47.124Z,3.10
2022-11-23T03:36:14.303Z,3.10
2022-11-23T03:38:41.497Z,4.03
2022-11-23T03:41:09.369Z,3.35
2022-11-23T03:43:36.522Z,2.03
2022-11-23T03:46:03.626Z,4.68
2022-11-23T03:48:30.752Z,2.15
2022-11-23T03:50:57.849Z,2.55
2022-11-23T03:53:24.978Z,2.50
2022-11-23T03:55:54.863Z,2.72
2022-11-23T03:58:22.058Z,2.95
2022-11-23T04:00:49.205Z,2.72
2022-11-23T04:03:16.352Z,2.38
2022-11-23T04:05:45.754Z,2.53
2022-11-23T04:08:12.907Z,4.38
2022-11-23T04:10:40.020Z,3.78
2022-11-23T04:13:07.164Z,2.15
2022-11-23T04:15:34.301Z,2.67
2022-11-23T04:18:01.425Z,3.17
2022-11-23T04:20:28.598Z,3.53
2022-11-23T04:22:55.725Z,3.83
2022-11-23T04:25:23.271Z,2.83
2022-11-23T04:27:50.399Z,3.33
2022-11-23T04:30:17.538Z,2.33
2022-11-23T04:32:47.485Z,3.30
2022-11-23T04:35:14.647Z,3.28
2022-11-23T04:37:41.771Z,2.80
2022-11-23T04:40:09.236Z,3.53
2022-11-23T04:42:36.367Z,2.80
2022-11-23T04:45:03.509Z,2.63
2022-11-23T04:47:31.065Z,2.10
2022-11-23T04:49:58.206Z,3.00
2022-11-23T04:52:25.402Z,2.47
2022-11-23T04:54:52.522Z,2.17
2022-11-23T04:57:19.637Z,3.75
2022-11-23T04:59:46.766Z,3.28
2022-11-23T05:02:13.925Z,2.20
2022-11-23T05:04:41.084Z,2.42
2022-11-23T05:07:10.784Z,2.70
2022-11-23T05:09:37.953Z,2.42
2022-11-23T05:12:05.238Z,3.53
2022-11-23T05:14:32.393Z,2.63
2022-11-23T05:16:59.566Z,3.08
2022-11-23T05:19:26.677Z,2.67
2022-11-23T05:21:53.762Z,2.50
2022-11-23T05:24:21.037Z,2.80
2022-11-23T05:26:50.871Z,2.47
2022-11-23T05:29:21.955Z,2.20
2022-11-23T05:31:49.059Z,3.05
2022-11-23T05:34:16.293Z,3.72
2022-11-23T05:36:43.417Z,1.92
2022-11-23T05:39:10.615Z,3.40
2022-11-23T05:41:37.705Z,2.35
2022-11-23T05:44:04.903Z,2.75
2022-11-23T05:46:32.242Z,2.42
2022-11-23T05:48:59.351Z,2.87
2022-11-23T05:51:26.514Z,2.75
2022-11-23T05:53:53.663Z,2.55
2022-11-23T05:56:20.826Z,2.85
2022-11-23T05:58:47.933Z,2.08
2022-11-23T06:01:15.125Z,2.42
2022-11-23T06:03:42.295Z,4.68
2022-11-23T06:06:09.679Z,2.53
2022-11-23T06:08:36.854Z,3.63
2022-11-23T06:11:04.094Z,4.47
2022-11-23T06:13:31.206Z,2.80
2022-11-23T06:15:58.448Z,3.45
2022-11-23T06:18:25.562Z,2.70
2022-11-23T06:20:52.665Z,3.22
2022-11-23T06:23:19.825Z,2.95
2022-11-23T06:25:46.994Z,3.03
2022-11-23T06:28:14.152Z,2.38
2022-11-23T06:30:41.299Z,3.22
2022-11-23T06:33:08.578Z,3.05
2022-11-23T06:35:35.727Z,3.50
2022-11-23T06:38:05.334Z,2.70
2022-11-23T06:40:32.480Z,4.50
2022-11-23T06:43:00.259Z,3.03
2022-11-23T06:45:27.453Z,3.50
2022-11-23T06:47:57.789Z,3.33
2022-11-23T06:50:25.120Z,3.03
2022-11-23T06:52:57.101Z,3.42
2022-11-23T06:55:24.665Z,3.00
2022-11-23T06:57:51.961Z,2.80
2022-11-23T07:00:20.162Z,3.50
2022-11-23T07:02:53.928Z,5.57
2022-11-23T07:05:21.970Z,2.80
2022-11-23T07:07:49.745Z,4.00
2022-11-23T07:10:17.123Z,3.42
2022-11-23T07:12:44.282Z,3.77
2022-11-23T07:15:11.681Z,2.78
2022-11-23T07:17:39.994Z,5.10
2022-11-23T07:20:08.866Z,2.75
2022-11-23T07:22:36.737Z,5.78
2022-11-23T07:25:04.392Z,2.80
2022-11-23T07:27:31.721Z,2.00
2022-11-23T07:29:58.869Z,2.40
2022-11-23T07:32:26.030Z,2.30
2022-11-23T07:34:56.064Z,3.25
2022-11-23T07:37:23.196Z,2.60
2022-11-23T07:39:57.726Z,2.70
2022-11-23T07:42:36.864Z,3.65
2022-11-23T07:45:05.197Z,4.25
2022-11-23T07:47:32.360Z,2.83
2022-11-23T07:49:59.725Z,3.30
2022-11-23T07:52:27.308Z,4.53
2022-11-23T07:54:54.442Z,9.02
2022-11-23T07:57:21.534Z,12.45
2022-11-23T07:59:48.688Z,7.80
2022-11-23T08:02:16.792Z,9.40
2022-11-23T08:04:44.642Z,7.75
2022-11-23T08:07:12.139Z,10.32
2022-11-23T08:09:39.945Z,7.30
2022-11-23T08:12:07.562Z,7.00
2022-11-23T08:14:35.246Z,4.93
2022-11-23T08:17:02.674Z,5.63
2022-11-23T08:19:29.848Z,9.48
2022-11-23T08:21:57.411Z,6.95
2022-11-23T08:24:24.548Z,4.82
2022-11-23T08:26:53.841Z,5.30
2022-11-23T08:29:21.441Z,7.70
2022-11-23T08:31:50.824Z,4.10
2022-11-23T08:34:19.215Z,6.88
2022-11-23T08:36:46.412Z,7.43
2022-11-23T08:39:14.959Z,7.20
2022-11-23T08:41:42.953Z,5.78
2022-11-23T08:44:11.327Z,13.38
2022-11-23T08:46:39.427Z,12.00
2022-11-23T08:49:07.399Z,9.55
2022-11-23T08:51:35.174Z,8.73
2022-11-23T08:54:02.335Z,9.80
2022-11-23T08:56:29.486Z,11.00
2022-11-23T08:58:57.089Z,19.85
2022-11-23T09:01:24.322Z,10.57
2022-11-23T09:03:51.588Z,9.63
2022-11-23T09:06:19.260Z,7.10
2022-11-23T09:08:46.868Z,8.82
2022-11-23T09:11:15.024Z,8.25
2022-11-23T09:13:42.758Z,10.35
2022-11-23T09:16:11.038Z,11.55
2022-11-23T09:21:06.695Z,10.80
2022-11-23T09:23:34.337Z,11.38
2022-11-23T09:26:02.596Z,15.05
2022-11-23T09:30:58.404Z,12.07
2022-11-23T09:36:03.452Z,10.52
2022-11-23T09:38:55.136Z,8.43
2022-11-23T09:41:23.977Z,8.60
2022-11-23T09:43:58.179Z,7.32
2022-11-23T09:46:37.097Z,16.05
2022-11-23T09:49:04.434Z,15.70
2022-11-23T09:51:32.091Z,8.57
2022-11-23T09:54:25.516Z,13.10
2022-11-23T09:57:00.072Z,12.95
2022-11-23T09:59:32.394Z,8.65
2022-11-23T10:02:00.187Z,13.70
2022-11-23T10:04:29.294Z,9.40
2022-11-23T10:06:58.970Z,9.48
2022-11-23T10:09:35.315Z,14.70
2022-11-23T10:12:11.762Z,9.90
2022-11-23T10:14:50.828Z,6.38
2022-11-23T10:17:17.934Z,10.38
2022-11-23T10:19:45.041Z,9.35
2022-11-23T10:22:17.555Z,6.40
2022-11-23T10:24:48.019Z,6.07
2022-11-23T10:27:17.758Z,10.15
2022-11-23T10:29:46.596Z,6.30
2022-11-23T10:32:22.303Z,7.43
2022-11-23T10:34:52.082Z,9.15
2022-11-23T10:37:19.493Z,7.35
2022-11-23T10:39:46.691Z,6.90
2022-11-23T10:42:28.954Z,9.25
2022-11-23T10:44:56.802Z,7.00
2022-11-23T10:47:44.141Z,5.43
2022-11-23T10:50:22.083Z,6.55
2022-11-23T10:52:53.540Z,4.88
2022-11-23T10:55:23.628Z,7.00
2022-11-23T10:57:50.843Z,6.60
2022-11-23T11:00:19.645Z,5.13
2022-11-23T11:02:51.195Z,6.22
2022-11-23T11:06:08.091Z,6.32
2022-11-23T11:08:21.160Z,3.63
2022-11-23T11:10:52.330Z,6.75
2022-11-23T11:13:39.699Z,6.57
2022-11-23T11:16:08.079Z,4.32
2022-11-23T11:18:36.659Z,7.28
2022-11-23T11:21:08.478Z,6.32
2022-11-23T11:23:40.062Z,7.50
2022-11-23T11:26:12.278Z,6.35
2022-11-23T11:28:42.497Z,6.30
2022-11-23T11:31:34.184Z,7.00
2022-11-23T11:34:01.266Z,3.65
2022-11-23T11:36:30.900Z,4.78
2022-11-23T11:39:18.938Z,6.07
2022-11-23T11:41:48.024Z,5.28
2022-11-23T11:44:20.617Z,4.05
2022-11-23T11:46:50.248Z,4.05
2022-11-23T11:49:22.837Z,4.35
2022-11-23T11:51:54.446Z,5.57
2022-11-23T11:54:27.768Z,5.47
2022-11-23T11:57:06.633Z,4.43
2022-11-23T11:59:42.871Z,4.22
2022-11-23T12:02:27.859Z,4.07
2022-11-23T12:05:13.452Z,5.70
2022-11-23T12:08:04.071Z,5.28
2022-11-23T12:10:50.569Z,3.92
2022-11-23T12:13:19.631Z,4.50
2022-11-23T12:15:50.391Z,4.78
2022-11-23T12:18:17.971Z,4.25
2022-11-23T12:20:52.499Z,4.25
2022-11-23T12:23:46.809Z,3.72
2022-11-23T12:26:23.120Z,3.92
2022-11-23T12:28:53.713Z,4.82
2022-11-23T12:31:39.258Z,3.45
2022-11-23T12:34:06.375Z,2.67
2022-11-23T12:36:33.478Z,3.33
2022-11-23T12:39:19.647Z,3.22
2022-11-23T12:41:56.014Z,4.22
2022-11-23T12:44:35.217Z,3.88
2022-11-23T12:47:08.843Z,4.38
2022-11-23T12:49:51.977Z,4.25
2022-11-23T12:52:22.191Z,4.28
2022-11-23T12:55:05.945Z,3.33
2022-11-23T12:57:45.475Z,3.33
2022-11-23T13:00:12.917Z,3.50
2022-11-23T13:02:40.040Z,4.72
2022-11-23T13:05:13.032Z,3.33
2022-11-23T13:07:58.733Z,2.47
2022-11-23T13:10:30.435Z,4.20
2022-11-23T13:13:16.266Z,3.95
2022-11-23T13:16:08.184Z,4.00
2022-11-23T13:18:47.786Z,4.88
2022-11-23T13:21:17.655Z,2.88
2022-11-23T13:23:44.967Z,2.78
2022-11-23T13:26:20.987Z,3.30
2022-11-23T13:28:52.104Z,3.33
2022-11-23T13:31:20.944Z,3.78
2022-11-23T13:33:48.969Z,3.13
2022-11-23T13:37:10.677Z,5.05
2022-11-23T13:39:41.586Z,3.78
2022-11-23T13:42:10.901Z,2.88
2022-11-23T13:44:38.320Z,2.10
2022-11-23T13:47:17.507Z,3.92
2022-11-23T13:49:45.808Z,3.08
2022-11-23T13:52:22.441Z,2.58
2022-11-23T13:55:09.483Z,3.72
2022-11-23T13:57:40.857Z,2.45
2022-11-23T14:00:26.869Z,2.30
2022-11-23T14:03:13.953Z,4.38
2022-11-23T14:05:50.275Z,2.30
2022-11-23T14:08:19.421Z,2.45
2022-11-23T14:10:46.690Z,3.05
2022-11-23T14:13:21.591Z,3.42
2022-11-23T14:16:00.532Z,2.50
2022-11-23T14:18:39.618Z,4.30
2022-11-23T14:21:21.836Z,4.72
2022-11-23T14:23:51.988Z,3.50
2022-11-23T14:26:35.212Z,3.15
2022-11-23T14:29:18.156Z,2.63
2022-11-23T14:32:00.767Z,3.30
2022-11-23T14:34:43.333Z,3.67
2022-11-23T14:37:32.085Z,3.05
2022-11-23T14:40:07.245Z,3.03
2022-11-23T14:42:37.114Z,3.33
2022-11-23T14:45:05.850Z,2.55
2022-11-23T14:47:33.206Z,2.03
2022-11-23T14:50:00.409Z,2.88
2022-11-23T14:52:32.931Z,3.70
2022-11-23T14:55:02.342Z,1.98
2022-11-23T14:57:32.326Z,2.75
2022-11-23T15:00:01.837Z,3.95
2022-11-23T15:02:37.516Z,3.10
2022-11-23T15:05:43.320Z,2.95
2022-11-23T15:08:14.151Z,3.20
2022-11-23T15:10:59.791Z,4.10
2022-11-23T15:13:31.059Z,2.95
2022-11-23T15:15:59.078Z,3.25
2022-11-23T15:18:33.514Z,2.58
2022-11-23T15:21:02.537Z,4.20
2022-11-23T15:23:37.102Z,2.13
2022-11-23T15:26:05.715Z,1.98
2022-11-23T15:28:38.538Z,1.95
2022-11-23T15:31:20.778Z,2.03
2022-11-23T15:33:49.205Z,1.92
2022-11-23T15:36:17.659Z,2.00
2022-11-23T15:38:45.186Z,2.38
2022-11-23T15:41:12.378Z,2.28
2022-11-23T15:43:51.870Z,2.55
2022-11-23T15:46:19.270Z,1.95
2022-11-23T15:48:48.779Z,2.38
2022-11-23T15:51:25.956Z,1.52
2022-11-23T15:53:54.072Z,2.20
2022-11-23T15:58:48.927Z,3.30
2022-11-23T16:01:16.313Z,2.20
2022-11-23T16:03:53.628Z,3.60
2022-11-23T16:06:24.820Z,2.00
2022-11-23T16:08:52.165Z,1.60
2022-11-23T16:11:23.935Z,3.00
2022-11-23T16:13:51.074Z,2.40
2022-11-23T16:16:21.422Z,1.85
2022-11-23T16:18:56.716Z,2.33
2022-11-23T16:21:25.520Z,5.22
2022-11-23T16:23:54.474Z,1.92
2022-11-23T16:26:22.831Z,3.30
2022-11-23T16:28:57.347Z,2.97
2022-11-23T16:31:28.982Z,1.92
2022-11-23T16:33:56.360Z,3.40
2022-11-23T16:36:23.664Z,2.47
2022-11-23T16:38:50.803Z,2.40
2022-11-23T16:41:17.941Z,1.60
2022-11-23T16:43:45.062Z,3.05
2022-11-23T16:46:12.246Z,1.90
2022-11-23T16:48:40.760Z,3.90
2022-11-23T16:51:10.764Z,2.13
2022-11-23T16:54:11.309Z,3.05
2022-11-23T16:56:26.785Z,1.50
2022-11-23T16:58:55.235Z,1.70
2022-11-23T17:01:23.861Z,2.33
2022-11-23T17:03:54.098Z,1.50
2022-11-23T17:06:24.716Z,2.72
2022-11-23T17:08:59.345Z,1.60
2022-11-23T17:11:30.481Z,2.58
2022-11-23T17:13:57.701Z,4.10
2022-11-23T17:16:27.525Z,1.77
2022-11-23T17:18:55.192Z,2.00
2022-11-23T17:21:22.316Z,2.13
2022-11-23T17:23:49.470Z,3.85
2022-11-23T17:26:37.268Z,2.60
2022-11-23T17:29:06.070Z,1.83
2022-11-23T17:31:33.459Z,1.65
2022-11-23T17:34:00.659Z,2.20
2022-11-23T17:36:27.901Z,1.42
2022-11-23T17:38:55.279Z,1.93
2022-11-23T17:41:22.441Z,1.75
2022-11-23T17:43:52.281Z,3.67
2022-11-23T17:46:21.764Z,2.65
2022-11-23T17:48:51.125Z,1.80
2022-11-23T17:51:18.304Z,2.67
2022-11-23T17:53:47.673Z,1.95
2022-11-23T17:56:19.403Z,1.52
2022-11-23T17:58:47.094Z,1.45
2022-11-23T18:01:15.613Z,2.78
2022-11-23T18:03:45.204Z,1.67
2022-11-23T18:06:16.938Z,3.25
2022-11-23T18:08:47.033Z,2.28
2022-11-23T18:11:14.769Z,2.42
2022-11-23T18:13:42.400Z,1.88
2022-11-23T18:16:10.225Z,2.67
2022-11-23T18:18:37.510Z,2.65
2022-11-23T18:21:05.074Z,2.17
2022-11-23T18:23:32.314Z,2.13
2022-11-23T18:26:16.434Z,1.20
2022-11-23T18:28:43.592Z,2.00
2022-11-23T18:31:30.745Z,2.17
2022-11-23T18:33:57.907Z,1.92
2022-11-23T18:36:27.589Z,1.77
2022-11-23T18:38:55.326Z,2.20
2022-11-23T18:41:22.796Z,1.85
2022-11-23T18:43:50.171Z,1.75
2022-11-23T18:46:20.536Z,1.83
2022-11-23T18:48:48.758Z,1.77
2022-11-23T18:53:44.920Z,2.53
2022-11-23T18:56:12.620Z,2.13
2022-11-23T18:58:40.749Z,1.70
2022-11-23T19:03:40.209Z,1.50
2022-11-23T19:06:08.221Z,1.95
2022-11-23T19:08:40.298Z,1.85
2022-11-23T19:11:08.556Z,1.92
2022-11-23T19:16:16.114Z,1.75
2022-11-23T19:18:43.664Z,2.40
2022-11-23T19:21:14.817Z,2.35
2022-11-23T19:23:42.342Z,1.95
2022-11-23T19:26:09.687Z,1.85
2022-11-23T19:28:37.092Z,2.35
2022-11-23T19:31:14.598Z,2.15
2022-11-23T19:33:42.022Z,2.17
2022-11-23T19:36:10.357Z,1.98
2022-11-23T19:38:37.507Z,2.47
2022-11-23T19:41:04.777Z,2.63
2022-11-23T19:43:32.703Z,2.23
2022-11-23T19:46:01.583Z,1.42
2022-11-23T19:48:30.609Z,1.85
2022-11-23T19:51:01.514Z,2.13
2022-11-23T19:53:31.108Z,3.40
2022-11-23T19:56:02.575Z,2.72
2022-11-23T19:58:33.253Z,1.90
2022-11-23T20:01:01.217Z,1.80
2022-11-23T20:03:28.439Z,2.25
2022-11-23T20:05:56.847Z,1.65
2022-11-23T20:08:23.969Z,2.85
2022-11-23T20:10:51.166Z,1.85
2022-11-23T20:13:18.415Z,1.65
2022-11-23T20:15:47.059Z,2.63
2022-11-23T20:18:14.219Z,4.68
2022-11-23T20:20:45.823Z,2.50
2022-11-23T20:23:14.706Z,2.28
2022-11-23T20:25:42.380Z,2.53
2022-11-23T20:28:12.475Z,2.65
2022-11-23T20:30:39.638Z,2.42
2022-11-23T20:33:06.803Z,1.85
2022-11-23T20:35:33.957Z,2.25
2022-11-23T20:38:01.076Z,1.92
2022-11-23T20:40:28.451Z,2.60
2022-11-23T20:42:59.578Z,1.67
2022-11-23T20:45:27.282Z,2.47
2022-11-23T20:47:54.861Z,2.83
2022-11-23T20:50:25.273Z,2.67
2022-11-23T20:52:53.239Z,2.28
2022-11-23T20:55:23.430Z,4.53
2022-11-23T20:57:51.271Z,2.38
2022-11-23T21:00:19.825Z,3.50
2022-11-23T21:02:49.874Z,2.08
2022-11-23T21:05:17.197Z,2.22
2022-11-23T21:07:49.269Z,3.73
2022-11-23T21:10:35.154Z,2.72
2022-11-23T21:13:21.401Z,1.80
2022-11-23T21:15:48.599Z,2.65
2022-11-23T21:18:15.939Z,3.78
2022-11-23T21:20:43.693Z,3.45
2022-11-23T21:23:11.065Z,2.08
2022-11-23T21:25:38.261Z,2.85
2022-11-23T21:28:05.621Z,2.75
2022-11-23T21:30:33.411Z,2.63
2022-11-23T21:33:01.004Z,2.08
2022-11-23T21:35:28.294Z,3.20
2022-11-23T21:37:55.395Z,2.93
2022-11-23T21:40:22.983Z,2.92
2022-11-23T21:42:51.886Z,1.85
2022-11-23T21:45:19.020Z,3.00
2022-11-23T21:47:46.627Z,2.53
2022-11-23T21:50:13.800Z,3.10
2022-11-23T21:52:41.018Z,3.37
2022-11-23T21:55:08.999Z,3.40
2022-11-23T21:57:36.146Z,4.40
2022-11-23T22:00:03.473Z,2.75
2022-11-23T22:02:30.648Z,4.10
2022-11-23T22:05:00.045Z,3.17
2022-11-23T22:07:27.213Z,3.50
2022-11-23T22:09:54.382Z,3.00
2022-11-23T22:12:21.513Z,2.78
2022-11-23T22:14:48.733Z,1.77
2022-11-23T22:17:15.875Z,3.28
2022-11-23T22:19:45.534Z,2.78
2022-11-23T22:22:12.644Z,2.60
2022-11-23T22:24:40.103Z,3.00
2022-11-23T22:27:07.678Z,2.42
2022-11-23T22:29:35.301Z,3.83
2022-11-23T22:32:02.489Z,2.78
2022-11-23T22:34:30.059Z,3.17
2022-11-23T22:36:57.763Z,3.45
2022-11-23T22:39:24.909Z,2.83
2022-11-23T22:41:52.096Z,3.80
2022-11-23T22:44:19.201Z,4.30
2022-11-23T22:46:46.403Z,3.50
2022-11-23T22:49:13.575Z,4.95
2022-11-23T22:51:41.475Z,2.42
2022-11-23T22:54:09.599Z,3.65
2022-11-23T22:59:06.164Z,3.22
2022-11-23T23:01:33.857Z,3.25
2022-11-23T23:04:02.796Z,4.80
2022-11-23T23:06:33.647Z,2.67
2022-11-23T23:09:02.601Z,4.00
2022-11-23T23:11:31.161Z,3.20
2022-11-23T23:13:59.225Z,3.50
2022-11-23T23:16:27.398Z,3.50
2022-11-23T23:21:22.240Z,3.37
2022-11-23T23:23:50.852Z,3.80
2022-11-23T23:26:18.724Z,3.35
2022-11-23T23:28:46.029Z,3.20
2022-11-23T23:31:14.740Z,6.03
2022-11-23T23:33:41.955Z,3.17
2022-11-23T23:36:13.520Z,3.20
2022-11-23T23:38:41.095Z,2.60
2022-11-23T23:41:09.069Z,4.13
2022-11-23T23:43:36.253Z,2.00
2022-11-23T23:46:05.172Z,3.45
2022-11-23T23:48:33.779Z,3.28
2022-11-23T23:51:12.001Z,2.88
2022-11-23T23:53:39.628Z,3.28
2022-11-23T23:56:08.243Z,2.38
2022-11-23T23:58:35.882Z,4.00
